createdAt,value
2022-08-04T00:01:29.352Z,22.50
2022-08-04T00:04:09.614Z,22.50
2022-08-04T00:07:01.070Z,22.40
2022-08-04T00:09:39.881Z,22.30
2022-08-04T00:12:12.811Z,22.40
2022-08-04T00:14:50.016Z,22.20
2022-08-04T00:17:22.449Z,22.90
2022-08-04T00:19:56.964Z,22.30
2022-08-04T00:22:30.392Z,22.30
2022-08-04T00:25:04.598Z,22.30
2022-08-04T00:27:36.367Z,22.20
2022-08-04T00:30:08.518Z,22.30
2022-08-04T00:32:36.969Z,22.20
2022-08-04T00:35:06.604Z,22.20
2022-08-04T00:37:36.175Z,22.10
2022-08-04T00:40:23.156Z,22.10
2022-08-04T00:43:09.473Z,22.10
2022-08-04T00:46:34.672Z,22.20
2022-08-04T00:49:36.336Z,22.20
2022-08-04T00:52:32.142Z,22.20
2022-08-04T00:55:24.017Z,22.20
2022-08-04T00:58:20.397Z,22.20
2022-08-04T01:00:59.905Z,22.10
2022-08-04T01:03:51.099Z,22.00
2022-08-04T01:06:36.962Z,21.90
2022-08-04T01:09:38.032Z,21.90
2022-08-04T01:12:28.267Z,21.90
2022-08-04T01:15:07.749Z,21.90
2022-08-04T01:17:51.728Z,21.80
2022-08-04T01:20:27.791Z,21.80
2022-08-04T01:23:57.169Z,21.80
2022-08-04T01:26:57.593Z,21.80
2022-08-04T01:29:44.102Z,21.70
2022-08-04T01:32:25.475Z,21.70
2022-08-04T01:35:03.533Z,21.80
2022-08-04T01:37:50.887Z,21.80
2022-08-04T01:40:21.348Z,21.70
2022-08-04T01:42:54.212Z,21.70
2022-08-04T01:45:26.410Z,21.60
2022-08-04T01:47:57.420Z,21.60
2022-08-04T01:50:28.043Z,21.60
2022-08-04T01:52:57.363Z,21.60
2022-08-04T01:55:54.330Z,21.40
2022-08-04T01:58:20.979Z,21.70
2022-08-04T02:01:02.348Z,21.60
2022-08-04T02:04:21.554Z,21.60
2022-08-04T02:06:41.910Z,21.60
2022-08-04T02:09:23.489Z,21.60
2022-08-04T02:12:05.770Z,21.50
2022-08-04T02:14:57.403Z,21.50
2022-08-04T02:17:37.691Z,21.50
2022-08-04T02:20:16.564Z,21.40
2022-08-04T02:22:54.960Z,21.40
2022-08-04T02:25:28.283Z,21.40
2022-08-04T02:28:23.551Z,21.40
2022-08-04T02:31:15.611Z,21.40
2022-08-04T02:33:47.917Z,21.30
2022-08-04T02:36:25.371Z,21.30
2022-08-04T02:38:58.013Z,21.30
2022-08-04T02:41:29.264Z,21.30
2022-08-04T02:44:00.578Z,21.30
2022-08-04T02:46:31.251Z,21.20
2022-08-04T02:49:05.265Z,21.20
2022-08-04T02:51:37.928Z,21.20
2022-08-04T02:54:08.287Z,21.10
2022-08-04T02:56:39.196Z,21.10
2022-08-04T02:59:10.056Z,21.00
2022-08-04T03:01:56.665Z,21.10
2022-08-04T03:04:55.490Z,21.00
2022-08-04T03:08:00.770Z,21.00
2022-08-04T03:11:17.241Z,20.80
2022-08-04T03:14:29.942Z,20.90
2022-08-04T03:18:00.697Z,20.80
2022-08-04T03:21:20.650Z,20.80
2022-08-04T03:24:43.799Z,20.70
2022-08-04T03:27:51.567Z,20.70
2022-08-04T03:30:26.951Z,20.70
2022-08-04T03:34:04.106Z,20.70
2022-08-04T03:37:20.390Z,20.60
2022-08-04T03:40:35.505Z,20.60
2022-08-04T03:44:08.156Z,20.50
2022-08-04T03:47:01.766Z,20.60
2022-08-04T03:50:20.066Z,20.60
2022-08-04T03:53:32.701Z,20.60
2022-08-04T03:56:50.705Z,20.60
2022-08-04T04:00:06.611Z,20.70
2022-08-04T04:03:28.485Z,20.60
2022-08-04T04:06:39.610Z,20.60
2022-08-04T04:10:16.379Z,20.60
2022-08-04T04:13:23.629Z,20.70
2022-08-04T04:16:33.787Z,20.80
2022-08-04T04:19:38.280Z,20.90
2022-08-04T04:22:25.209Z,21.00
2022-08-04T04:25:13.983Z,21.10
2022-08-04T04:28:43.678Z,20.60
2022-08-04T04:31:12.258Z,21.20
2022-08-04T04:33:59.893Z,21.30
2022-08-04T04:36:44.894Z,21.30
2022-08-04T04:39:29.756Z,21.30
2022-08-04T04:42:28.095Z,21.40
2022-08-04T04:45:27.038Z,21.50
2022-08-04T04:48:13.603Z,21.60
2022-08-04T04:51:09.806Z,21.60
2022-08-04T04:54:04.099Z,21.80
2022-08-04T04:56:45.092Z,22.10
2022-08-04T04:59:21.001Z,22.00
2022-08-04T05:02:25.032Z,22.00
2022-08-04T05:05:22.381Z,22.30
2022-08-04T05:08:44.907Z,22.40
2022-08-04T05:14:22.838Z,22.50
2022-08-04T05:15:04.827Z,22.60
2022-08-04T05:17:39.470Z,22.90
2022-08-04T05:20:14.401Z,23.10
2022-08-04T05:22:51.898Z,23.20
2022-08-04T05:25:26.601Z,23.40
2022-08-04T05:28:06.661Z,23.50
2022-08-04T05:30:48.441Z,23.60
2022-08-04T05:33:24.895Z,23.70
2022-08-04T05:36:18.326Z,23.70
2022-08-04T05:38:59.850Z,23.70
2022-08-04T05:41:32.409Z,23.90
2022-08-04T05:44:17.990Z,23.90
2022-08-04T05:46:53.822Z,24.00
2022-08-04T05:49:25.783Z,24.10
2022-08-04T05:51:57.172Z,24.20
2022-08-04T05:54:27.383Z,24.40
2022-08-04T05:56:56.683Z,24.50
2022-08-04T05:59:26.813Z,24.70
2022-08-04T06:02:01.479Z,24.70
2022-08-04T06:04:37.598Z,24.70
2022-08-04T06:07:06.619Z,24.70
2022-08-04T06:09:35.262Z,24.90
2022-08-04T06:12:08.757Z,25.10
2022-08-04T06:14:46.367Z,25.50
2022-08-04T06:19:59.308Z,25.60
2022-08-04T06:20:22.940Z,25.90
2022-08-04T06:22:58.916Z,26.10
2022-08-04T06:25:32.202Z,26.20
2022-08-04T06:28:03.197Z,26.30
2022-08-04T06:30:34.211Z,26.70
2022-08-04T06:33:13.862Z,26.90
2022-08-04T06:35:43.676Z,26.00
2022-08-04T06:38:13.685Z,27.20
2022-08-04T06:40:43.931Z,27.30
2022-08-04T06:43:13.568Z,27.50
2022-08-04T06:45:44.192Z,27.70
2022-08-04T06:48:19.338Z,27.90
2022-08-04T06:51:26.237Z,28.10
2022-08-04T06:53:40.350Z,28.20
2022-08-04T06:56:12.024Z,28.40
2022-08-04T06:58:42.079Z,28.50
2022-08-04T07:01:11.631Z,28.80
2022-08-04T07:03:41.684Z,28.70
2022-08-04T07:06:14.437Z,28.80
2022-08-04T07:08:43.959Z,28.90
2022-08-04T07:11:14.057Z,28.90
2022-08-04T07:13:45.516Z,28.80
2022-08-04T07:16:18.423Z,28.90
2022-08-04T07:18:48.690Z,29.10
2022-08-04T07:21:23.703Z,29.50
2022-08-04T07:23:52.469Z,29.80
2022-08-04T07:26:28.779Z,30.40
2022-08-04T07:28:59.586Z,30.00
2022-08-04T07:31:34.544Z,29.90
2022-08-04T07:34:11.580Z,30.30
2022-08-04T07:36:51.224Z,30.30
2022-08-04T07:39:28.279Z,30.60
2022-08-04T07:42:01.687Z,30.70
2022-08-04T07:44:32.443Z,31.00
2022-08-04T07:47:02.364Z,31.00
2022-08-04T07:49:54.183Z,31.10
2022-08-04T07:52:21.875Z,31.00
2022-08-04T07:54:52.442Z,30.70
2022-08-04T07:57:39.650Z,30.50
2022-08-04T08:00:14.640Z,30.60
2022-08-04T08:02:44.030Z,30.40
2022-08-04T08:05:16.892Z,30.40
2022-08-04T08:07:51.051Z,30.70
2022-08-04T08:10:24.516Z,30.70
2022-08-04T08:12:54.604Z,30.70
2022-08-04T08:15:24.160Z,31.00
2022-08-04T08:17:59.855Z,31.50
2022-08-04T08:20:32.852Z,31.70
2022-08-04T08:23:05.340Z,32.00
2022-08-04T08:25:35.974Z,32.20
2022-08-04T08:28:06.265Z,32.20
2022-08-04T08:30:35.704Z,31.80
2022-08-04T08:33:08.232Z,31.90
2022-08-04T08:35:54.787Z,31.90
2022-08-04T08:38:40.084Z,32.00
2022-08-04T08:42:16.162Z,32.30
2022-08-04T08:45:19.583Z,32.40
2022-08-04T08:48:29.722Z,32.40
2022-08-04T08:51:51.113Z,32.90
2022-08-04T08:54:57.547Z,33.10
2022-08-04T08:57:59.799Z,34.10
2022-08-04T09:00:47.166Z,33.30
2022-08-04T09:04:11.144Z,33.20
2022-08-04T09:07:25.777Z,32.90
2022-08-04T09:10:07.259Z,33.40
2022-08-04T09:12:46.312Z,33.60
2022-08-04T09:15:19.632Z,33.90
2022-08-04T09:17:55.195Z,34.10
2022-08-04T09:20:35.802Z,34.10
2022-08-04T09:23:19.868Z,34.00
2022-08-04T09:25:59.509Z,34.30
2022-08-04T09:28:52.962Z,34.40
2022-08-04T09:31:26.171Z,34.40
2022-08-04T09:34:09.749Z,34.60
2022-08-04T09:36:56.738Z,34.20
2022-08-04T09:39:38.209Z,34.40
2022-08-04T09:42:25.895Z,34.60
2022-08-04T09:45:06.199Z,34.50
2022-08-04T09:47:47.104Z,34.60
2022-08-04T09:50:34.910Z,34.70
2022-08-04T09:53:22.176Z,34.80
2022-08-04T09:56:04.368Z,34.90
2022-08-04T09:58:52.364Z,35.00
2022-08-04T10:01:25.557Z,34.90
2022-08-04T10:04:02.220Z,34.70
2022-08-04T10:06:54.655Z,34.80
2022-08-04T10:09:39.742Z,34.80
2022-08-04T10:12:29.314Z,34.90
2022-08-04T10:15:15.247Z,34.80
2022-08-04T10:18:10.402Z,34.70
2022-08-04T10:21:08.944Z,34.50
2022-08-04T10:24:12.663Z,34.80
2022-08-04T10:26:57.331Z,35.10
2022-08-04T10:29:33.077Z,35.20
2022-08-04T10:32:10.688Z,35.30
2022-08-04T10:34:49.764Z,35.40
2022-08-04T10:37:53.291Z,35.50
2022-08-04T10:40:45.186Z,35.50
2022-08-04T10:43:39.849Z,35.60
2022-08-04T10:46:17.694Z,35.70
2022-08-04T10:48:55.221Z,35.80
2022-08-04T10:51:31.251Z,35.90
2022-08-04T10:54:30.483Z,35.60
2022-08-04T10:57:08.065Z,35.80
2022-08-04T10:59:47.282Z,36.00
2022-08-04T11:02:41.032Z,36.20
2022-08-04T11:05:25.500Z,36.30
2022-08-04T11:08:00.673Z,36.40
2022-08-04T11:10:36.369Z,36.40
2022-08-04T11:13:22.929Z,36.50
2022-08-04T11:16:05.034Z,36.50
2022-08-04T11:18:48.303Z,36.50
2022-08-04T11:21:25.162Z,36.30
2022-08-04T11:24:04.354Z,36.20
2022-08-04T11:26:47.453Z,36.10
2022-08-04T11:29:27.033Z,36.10
2022-08-04T11:32:03.072Z,36.20
2022-08-04T11:34:35.863Z,36.50
2022-08-04T11:37:15.161Z,36.50
2022-08-04T11:39:50.083Z,36.00
2022-08-04T11:42:24.508Z,36.10
2022-08-04T11:45:00.907Z,36.30
2022-08-04T11:47:33.997Z,36.50
2022-08-04T11:50:11.146Z,36.50
2022-08-04T11:52:44.107Z,37.00
2022-08-04T11:55:19.385Z,37.00
2022-08-04T11:57:54.431Z,37.00
2022-08-04T12:00:26.299Z,37.00
2022-08-04T12:03:16.465Z,37.00
2022-08-04T12:06:00.178Z,36.90
2022-08-04T12:08:52.563Z,37.00
2022-08-04T12:11:43.902Z,37.20
2022-08-04T12:14:27.537Z,37.30
2022-08-04T12:17:01.920Z,37.30
2022-08-04T12:20:04.400Z,37.20
2022-08-04T12:22:38.744Z,37.00
2022-08-04T12:25:13.166Z,37.30
2022-08-04T12:27:48.587Z,36.80
2022-08-04T12:30:59.636Z,36.80
2022-08-04T12:33:23.031Z,36.80
2022-08-04T12:36:22.590Z,36.80
2022-08-04T12:39:03.968Z,36.50
2022-08-04T12:41:41.771Z,36.70
2022-08-04T12:44:36.973Z,36.90
2022-08-04T12:47:27.810Z,37.10
2022-08-04T12:50:01.713Z,37.40
2022-08-04T12:53:01.406Z,37.40
2022-08-04T12:55:31.827Z,37.40
2022-08-04T12:58:11.522Z,37.10
2022-08-04T13:00:42.109Z,37.00
2022-08-04T13:03:16.620Z,37.10
2022-08-04T13:05:46.754Z,37.70
2022-08-04T13:08:21.131Z,38.00
2022-08-04T13:10:58.071Z,37.90
2022-08-04T13:13:30.151Z,38.00
2022-08-04T13:16:03.637Z,38.90
2022-08-04T13:18:36.862Z,39.60
2022-08-04T13:21:20.244Z,39.80
2022-08-04T13:24:09.515Z,38.90
2022-08-04T13:26:55.963Z,38.50
2022-08-04T13:29:58.651Z,38.70
2022-08-04T13:32:23.543Z,38.70
2022-08-04T13:34:56.035Z,38.20
2022-08-04T13:37:33.418Z,37.50
2022-08-04T13:40:04.146Z,36.90
2022-08-04T13:42:36.149Z,36.50
2022-08-04T13:45:08.347Z,36.40
2022-08-04T13:47:41.481Z,36.30
2022-08-04T13:50:23.428Z,36.80
2022-08-04T13:52:55.807Z,37.10
2022-08-04T13:55:28.317Z,37.20
2022-08-04T13:58:08.452Z,37.80
2022-08-04T14:00:52.400Z,38.30
2022-08-04T14:03:28.080Z,38.60
2022-08-04T14:06:17.934Z,38.80
2022-08-04T14:08:52.041Z,38.90
2022-08-04T14:12:10.205Z,39.00
2022-08-04T14:14:20.662Z,38.90
2022-08-04T14:17:01.475Z,39.40
2022-08-04T14:19:48.482Z,39.70
2022-08-04T14:22:34.573Z,39.80
2022-08-04T14:25:09.270Z,38.80
2022-08-04T14:27:47.542Z,38.50
2022-08-04T14:30:29.793Z,39.00
2022-08-04T14:34:02.084Z,39.20
2022-08-04T14:36:01.678Z,39.40
2022-08-04T14:38:46.968Z,39.30
2022-08-04T14:41:18.504Z,39.60
2022-08-04T14:43:49.130Z,39.50
2022-08-04T14:46:18.846Z,39.40
2022-08-04T14:49:04.253Z,40.20
2022-08-04T14:51:46.290Z,40.70
2022-08-04T14:54:18.842Z,41.00
2022-08-04T14:56:55.535Z,39.50
2022-08-04T14:59:24.913Z,38.60
2022-08-04T15:02:00.920Z,38.50
2022-08-04T15:04:32.236Z,39.10
2022-08-04T15:07:04.573Z,39.40
2022-08-04T15:09:34.184Z,39.60
2022-08-04T15:12:04.418Z,39.60
2022-08-04T15:14:36.680Z,39.60
2022-08-04T15:17:12.425Z,39.30
2022-08-04T15:19:58.155Z,39.80
2022-08-04T15:22:26.839Z,39.90
2022-08-04T15:24:56.014Z,40.20
2022-08-04T15:27:29.453Z,40.20
2022-08-04T15:30:03.398Z,40.00
2022-08-04T15:32:36.892Z,39.20
2022-08-04T15:35:12.612Z,38.60
2022-08-04T15:37:55.873Z,38.30
2022-08-04T15:40:33.431Z,37.90
2022-08-04T15:43:40.970Z,37.70
2022-08-04T15:46:42.652Z,37.40
2022-08-04T15:49:20.811Z,36.80
2022-08-04T15:52:00.653Z,36.20
2022-08-04T15:54:32.982Z,36.20
2022-08-04T15:57:03.501Z,35.90
2022-08-04T16:00:02.370Z,35.90
2022-08-04T16:02:40.012Z,35.80
2022-08-04T16:05:39.473Z,35.50
2022-08-04T16:08:16.956Z,35.30
2022-08-04T16:10:49.175Z,35.20
2022-08-04T16:13:20.593Z,35.10
2022-08-04T16:15:52.693Z,35.00
2022-08-04T16:18:40.330Z,35.00
2022-08-04T16:21:23.262Z,35.00
2022-08-04T16:24:21.438Z,35.20
2022-08-04T16:26:56.876Z,35.10
2022-08-04T16:29:42.074Z,35.00
2022-08-04T16:32:13.447Z,34.90
2022-08-04T16:34:49.310Z,34.80
2022-08-04T16:37:21.665Z,34.80
2022-08-04T16:39:52.923Z,34.70
2022-08-04T16:42:33.995Z,34.80
2022-08-04T16:45:12.965Z,34.70
2022-08-04T16:48:05.557Z,34.70
2022-08-04T16:50:35.290Z,34.70
2022-08-04T16:53:39.988Z,34.60
2022-08-04T16:56:01.249Z,34.60
2022-08-04T16:58:32.532Z,34.50
2022-08-04T17:01:10.242Z,34.40
2022-08-04T17:03:56.176Z,34.30
2022-08-04T17:06:39.652Z,34.30
2022-08-04T17:09:13.722Z,34.10
2022-08-04T17:11:44.302Z,34.00
2022-08-04T17:14:14.071Z,33.90
2022-08-04T17:16:44.697Z,33.90
2022-08-04T17:19:24.023Z,33.90
2022-08-04T17:22:05.347Z,33.80
2022-08-04T17:24:38.878Z,33.80
2022-08-04T17:28:09.262Z,33.70
2022-08-04T17:29:57.142Z,33.50
2022-08-04T17:32:25.896Z,33.50
2022-08-04T17:34:57.646Z,33.40
2022-08-04T17:37:38.326Z,33.30
2022-08-04T17:40:22.599Z,33.20
2022-08-04T17:44:02.868Z,33.20
2022-08-04T17:46:36.391Z,33.10
2022-08-04T17:49:16.710Z,33.00
2022-08-04T17:52:05.861Z,32.70
2022-08-04T17:54:40.164Z,32.60
2022-08-04T17:57:18.713Z,32.60
2022-08-04T17:59:57.438Z,32.60
2022-08-04T18:02:32.483Z,32.50
2022-08-04T18:05:07.435Z,32.40
2022-08-04T18:08:34.597Z,32.30
2022-08-04T18:10:54.233Z,32.20
2022-08-04T18:13:27.148Z,32.10
2022-08-04T18:16:06.691Z,32.00
2022-08-04T18:18:49.067Z,31.90
2022-08-04T18:21:19.120Z,31.80
2022-08-04T18:23:51.031Z,31.80
2022-08-04T18:26:23.688Z,31.70
2022-08-04T18:28:53.848Z,31.60
2022-08-04T18:31:22.093Z,31.50
2022-08-04T18:33:59.200Z,31.50
2022-08-04T18:36:33.869Z,31.40
2022-08-04T18:39:12.551Z,31.30
2022-08-04T18:42:01.121Z,31.20
2022-08-04T18:44:52.824Z,31.10
2022-08-04T18:47:24.869Z,31.00
2022-08-04T18:50:58.537Z,30.90
2022-08-04T18:52:48.064Z,30.90
2022-08-04T18:55:55.399Z,30.80
2022-08-04T18:58:17.174Z,30.70
2022-08-04T19:01:00.632Z,30.60
2022-08-04T19:03:34.763Z,30.60
2022-08-04T19:06:09.067Z,30.50
2022-08-04T19:08:42.518Z,30.40
2022-08-04T19:11:37.462Z,30.30
2022-08-04T19:14:03.486Z,30.30
2022-08-04T19:16:35.223Z,30.20
2022-08-04T19:19:07.716Z,30.20
2022-08-04T19:22:01.498Z,30.10
2022-08-04T19:24:32.794Z,30.10
2022-08-04T19:27:07.527Z,30.10
2022-08-04T19:29:41.268Z,30.10
2022-08-04T19:32:16.020Z,30.10
2022-08-04T19:34:47.601Z,30.00
2022-08-04T19:37:57.876Z,29.90
2022-08-04T19:40:09.540Z,30.00
2022-08-04T19:42:38.875Z,29.90
2022-08-04T19:45:09.990Z,29.90
2022-08-04T19:48:16.758Z,29.50
2022-08-04T19:50:35.306Z,29.80
2022-08-04T19:53:04.228Z,29.70
2022-08-04T19:58:38.493Z,29.70
2022-08-04T20:01:28.653Z,29.70
2022-08-04T20:06:39.303Z,29.50
2022-08-04T20:09:25.004Z,29.50
2022-08-04T20:11:55.028Z,29.40
2022-08-04T20:14:31.374Z,29.40
2022-08-04T20:17:02.677Z,29.40
2022-08-04T20:19:32.295Z,29.30
2022-08-04T20:22:03.111Z,29.20
2022-08-04T20:24:38.167Z,29.20
2022-08-04T20:29:59.284Z,29.00
2022-08-04T20:32:29.333Z,28.90
2022-08-04T20:34:59.311Z,28.90
2022-08-04T20:37:29.051Z,28.70
2022-08-04T20:40:17.321Z,28.70
2022-08-04T20:42:47.655Z,28.70
2022-08-04T20:45:16.865Z,28.60
2022-08-04T20:47:53.391Z,28.70
2022-08-04T20:50:29.555Z,28.60
2022-08-04T20:52:59.210Z,28.60
2022-08-04T20:55:29.845Z,28.50
2022-08-04T20:58:03.039Z,28.40
2022-08-04T21:00:32.639Z,28.30
2022-08-04T21:03:01.021Z,28.30
2022-08-04T21:05:31.640Z,28.30
2022-08-04T21:08:01.722Z,28.20
2022-08-04T21:10:30.385Z,28.20
2022-08-04T21:12:59.361Z,28.20
2022-08-04T21:15:58.614Z,28.10
2022-08-04T21:18:16.722Z,28.00
2022-08-04T21:20:48.276Z,28.00
2022-08-04T21:23:17.016Z,27.90
2022-08-04T21:25:49.860Z,27.90
2022-08-04T21:28:20.106Z,27.80
2022-08-04T21:30:54.592Z,27.70
2022-08-04T21:33:49.787Z,27.70
2022-08-04T21:36:19.810Z,27.60
2022-08-04T21:38:51.357Z,27.60
2022-08-04T21:41:26.789Z,27.50
2022-08-04T21:43:56.633Z,27.40
2022-08-04T21:46:30.197Z,27.10
2022-08-04T21:48:59.767Z,27.20
2022-08-04T21:51:58.055Z,27.20
2022-08-04T21:54:23.944Z,27.20
2022-08-04T21:56:52.410Z,27.10
2022-08-04T21:59:30.976Z,27.10
2022-08-04T22:02:02.016Z,27.00
2022-08-04T22:04:31.286Z,27.00
2022-08-04T22:07:03.218Z,27.00
2022-08-04T22:09:38.877Z,26.90
2022-08-04T22:12:11.992Z,27.00
2022-08-04T22:14:40.874Z,26.90
2022-08-04T22:17:13.637Z,26.90
2022-08-04T22:19:56.230Z,26.80
2022-08-04T22:22:29.526Z,26.80
2022-08-04T22:25:02.098Z,26.70
2022-08-04T22:27:58.279Z,26.80
2022-08-04T22:30:33.240Z,26.80
2022-08-04T22:33:08.843Z,26.70
2022-08-04T22:35:48.714Z,26.60
2022-08-04T22:38:24.263Z,26.70
2022-08-04T22:41:02.588Z,26.70
2022-08-04T22:43:34.429Z,26.60
2022-08-04T22:46:06.383Z,26.60
2022-08-04T22:48:37.817Z,26.50
2022-08-04T22:51:08.430Z,26.50
2022-08-04T22:53:38.540Z,26.50
2022-08-04T22:56:11.123Z,26.50
2022-08-04T22:58:51.006Z,26.50
2022-08-04T23:01:20.150Z,26.30
2022-08-04T23:03:55.859Z,26.20
2022-08-04T23:06:28.559Z,26.30
2022-08-04T23:08:59.337Z,26.20
2022-08-04T23:11:34.795Z,26.20
2022-08-04T23:14:04.850Z,26.00
2022-08-04T23:16:33.197Z,26.10
2022-08-04T23:19:12.172Z,26.10
2022-08-04T23:21:47.674Z,26.10
2022-08-04T23:24:30.717Z,26.00
2022-08-04T23:26:59.697Z,26.00
2022-08-04T23:29:52.573Z,26.00
2022-08-04T23:32:20.178Z,25.90
2022-08-04T23:34:48.913Z,25.90
2022-08-04T23:37:17.150Z,25.90
2022-08-04T23:40:14.687Z,25.80
2022-08-04T23:42:35.210Z,25.80
2022-08-04T23:45:03.694Z,25.80
2022-08-04T23:48:16.691Z,25.80
2022-08-04T23:50:20.371Z,25.70
2022-08-04T23:52:49.560Z,25.70
2022-08-04T23:55:21.288Z,25.70
2022-08-04T23:58:06.153Z,25.60
